Time;durP1;ratioP1;P1;durP2;ratioP2;P2;SDS_P1;SDS_P2;PMS_P1;PMS_P2;Temp;Humidity;BMP_temperature;BMP_pressure;BME280_temperature;BME280_humidity;BME280_pressure;Samples;Min_cycle;Max_cycle;Signal;HPM_P1;HPM_P2
2024/04/02 00:01:39;;;;;;;;;;;;;;;23.01;21.11;93844.41;4175008;28;19956;-66
2024/04/02 00:03:43;;;;;;;;;;;;;;;22.97;21.17;93857.44;4175247;28;19963;-66
2024/04/02 00:05:43;;;;;;;;;;;;;;;22.96;20.84;93863.06;4169014;28;19921;-66
2024/04/02 00:07:44;;;;;;;;;;;;;;;22.88;20.67;93841.09;4179242;28;19936;-66
2024/04/02 00:09:45;;;;;;;;;;;;;;;22.95;20.59;93829.38;4173843;28;20453;-67
2024/04/02 00:11:45;;;;;;;;;;;;;;;23.02;20.38;93862.06;4172348;28;19928;-67
2024/04/02 00:13:46;;;;;;;;;;;;;;;22.97;20.92;93843.28;4171087;28;19929;-66
2024/04/02 00:15:47;;;;;;;;;;;;;;;23.00;20.53;93832.94;4165495;28;20300;-65
2024/04/02 00:17:48;;;;;;;;;;;;;;;22.98;20.60;93845.72;4171892;28;19952;-66
2024/04/02 00:19:49;;;;;;;;;;;;;;;23.02;20.47;93846.84;4166679;28;20421;-65
2024/04/02 00:21:49;;;;;;;;;;;;;;;23.02;20.75;93819.34;4173208;28;19978;-67
2024/04/02 00:23:50;;;;;;;;;;;;;;;22.93;21.04;93847.53;4170709;28;20014;-65
2024/04/02 00:26:00;;;;;;;;;;;;;;;22.93;20.75;93851.03;4152241;28;20328;-67
2024/04/02 00:28:01;;;;;;;;;;;;;;;22.93;21.00;93850.19;4176274;28;19971;-66
2024/04/02 00:30:02;;;;;;;;;;;;;;;22.51;22.58;93842.94;4184294;28;20138;-66
2024/04/02 00:32:03;;;;;;;;;;;;;;;21.99;23.53;93839.75;4165131;28;19921;-66
2024/04/02 00:34:04;;;;;;;;;;;;;;;22.04;23.66;93855.81;4168994;28;19921;-66
2024/04/02 00:36:05;;;;;;;;;;;;;;;21.99;23.74;93839.75;4176071;28;19921;-65
2024/04/02 00:38:06;;;;;;;;;;;;;;;21.83;23.95;93865.47;4172923;28;20307;-66
2024/04/02 00:40:07;;;;;;;;;;;;;;;21.78;24.50;93848.59;4170720;28;19936;-64
2024/04/02 00:42:07;;;;;;;;;;;;;;;21.80;23.11;93846.47;4172565;28;19920;-67
2024/04/02 00:44:08;;;;;;;;;;;;;;;21.95;22.13;93838.66;4153812;28;19982;-68
2024/04/02 00:46:09;;;;;;;;;;;;;;;22.13;22.00;93847.34;4169388;28;20011;-65
2024/04/02 00:48:09;;;;;;;;;;;;;;;22.31;21.30;93844.38;4173450;28;20089;-66
2024/04/02 00:50:10;;;;;;;;;;;;;;;22.41;21.47;93828.47;4168533;28;19920;-66
2024/04/02 00:52:11;;;;;;;;;;;;;;;22.46;21.34;93833.03;4171668;28;19925;-65
2024/04/02 00:54:12;;;;;;;;;;;;;;;22.53;21.32;93835.50;4150316;28;19937;-66
2024/04/02 00:56:13;;;;;;;;;;;;;;;22.53;21.47;93820.28;4154393;28;19921;-66
2024/04/02 00:58:16;;;;;;;;;;;;;;;22.57;21.78;93837.41;4165302;28;19921;-66
2024/04/02 01:00:18;;;;;;;;;;;;;;;22.52;21.54;93829.38;4176413;28;19920;-67
2024/04/02 01:02:19;;;;;;;;;;;;;;;22.57;21.41;93832.06;4172938;28;19921;-66
2024/04/02 01:04:19;;;;;;;;;;;;;;;22.57;21.38;93828.59;4165029;28;20008;-65
2024/04/02 01:06:20;;;;;;;;;;;;;;;22.60;20.80;93841.41;4177001;28;19928;-66
2024/04/02 01:08:21;;;;;;;;;;;;;;;22.70;20.90;93833.50;4177034;28;19987;-66
2024/04/02 01:10:21;;;;;;;;;;;;;;;22.77;21.15;93822.59;4174190;28;19924;-66
2024/04/02 01:12:22;;;;;;;;;;;;;;;22.79;21.13;93821.28;4169909;28;19948;-65
2024/04/02 01:14:23;;;;;;;;;;;;;;;22.80;21.52;93843.44;4175345;28;20380;-65
2024/04/02 01:16:23;;;;;;;;;;;;;;;22.72;21.27;93846.59;4152460;28;19998;-66
2024/04/02 01:18:24;;;;;;;;;;;;;;;22.74;21.54;93823.91;4169863;28;20014;-66
2024/04/02 01:20:25;;;;;;;;;;;;;;;22.70;21.85;93852.97;4164175;28;20359;-65
2024/04/02 01:22:25;;;;;;;;;;;;;;;22.69;21.91;93850.56;4164353;28;19964;-66
2024/04/02 01:24:26;;;;;;;;;;;;;;;22.63;22.20;93846.28;4169342;28;19932;-65
2024/04/02 01:26:27;;;;;;;;;;;;;;;22.63;22.00;93846.28;4156472;28;19925;-64
2024/04/02 01:28:27;;;;;;;;;;;;;;;22.15;23.53;93851.38;4175435;28;19958;-65
2024/04/02 01:30:28;;;;;;;;;;;;;;;21.95;23.62;93827.19;4173153;28;20059;-64
2024/04/02 01:32:29;;;;;;;;;;;;;;;21.82;23.82;93841.72;4165924;28;19931;-67
2024/04/02 01:34:30;;;;;;;;;;;;;;;21.83;23.60;93821.97;4172051;28;19955;-64
2024/04/02 01:36:31;;;;;;;;;;;;;;;21.85;22.93;93847.34;4172293;28;19925;-65
2024/04/02 01:38:32;;;;;;;;;;;;;;;21.97;22.76;93846.41;4167940;28;19924;-67
2024/04/02 01:40:32;;;;;;;;;;;;;;;22.09;22.44;93845.22;4155573;28;19921;-67
2024/04/02 01:42:34;;;;;;;;;;;;;;;22.18;22.42;93840.22;4165728;28;19970;-66
2024/04/02 01:44:34;;;;;;;;;;;;;;;22.11;22.60;93838.81;4173550;28;19990;-67
2024/04/02 01:46:35;;;;;;;;;;;;;;;22.11;23.06;93833.47;4171753;28;19920;-65
2024/04/02 01:48:37;;;;;;;;;;;;;;;22.02;23.38;93852.59;4173664;28;20438;-68
2024/04/02 01:50:37;;;;;;;;;;;;;;;21.66;23.88;93844.19;4176729;28;19921;-66
2024/04/02 01:52:38;;;;;;;;;;;;;;;21.43;24.60;93828.47;4169996;28;20363;-65
2024/04/02 01:54:38;;;;;;;;;;;;;;;21.50;23.97;93818.41;4161127;28;20337;-67
2024/04/02 01:56:39;;;;;;;;;;;;;;;21.61;23.87;93824.66;4174192;28;19920;-64
2024/04/02 01:58:40;;;;;;;;;;;;;;;21.72;23.28;93809.59;4176356;28;19927;-65
2024/04/02 02:00:40;;;;;;;;;;;;;;;21.83;22.74;93816.66;4171503;28;20003;-67
2024/04/02 02:02:41;;;;;;;;;;;;;;;21.94;22.90;93799.72;4171799;28;19928;-65
2024/04/02 02:04:42;;;;;;;;;;;;;;;21.94;22.60;93794.38;4167455;28;20063;-66
2024/04/02 02:06:42;;;;;;;;;;;;;;;21.94;22.94;93807.72;4174505;28;19942;-65
2024/04/02 02:08:43;;;;;;;;;;;;;;;22.00;22.79;93790.69;4157798;28;20401;-65
2024/04/02 02:10:44;;;;;;;;;;;;;;;22.06;22.79;93796.88;4174622;28;19921;-65
2024/04/02 02:12:44;;;;;;;;;;;;;;;22.05;22.75;93806.75;4172542;28;19925;-65
2024/04/02 02:14:45;;;;;;;;;;;;;;;22.08;22.05;93760.91;4172298;28;19925;-65
2024/04/02 02:16:45;;;;;;;;;;;;;;;22.07;22.33;93787.84;4167007;28;20427;-65
2024/04/02 02:18:46;;;;;;;;;;;;;;;22.15;22.19;93743.88;4166507;28;19943;-66
2024/04/02 02:20:47;;;;;;;;;;;;;;;22.17;21.87;93752.44;4165783;28;20146;-66
2024/04/02 02:22:47;;;;;;;;;;;;;;;22.22;20.46;93717.78;4165008;28;19966;-66
2024/04/02 02:24:48;;;;;;;;;;;;;;;22.33;21.14;93738.22;4171752;28;19928;-66
2024/04/02 02:26:50;;;;;;;;;;;;;;;22.37;21.60;93727.81;4172765;28;19921;-68
2024/04/02 02:28:50;;;;;;;;;;;;;;;22.32;21.12;93723.25;4171425;28;19921;-65
2024/04/02 02:30:51;;;;;;;;;;;;;;;22.32;21.93;93731.25;4170982;28;19931;-66
2024/04/02 02:32:51;;;;;;;;;;;;;;;22.30;22.16;93693.34;4173094;28;19979;-66
2024/04/02 02:34:52;;;;;;;;;;;;;;;22.26;22.00;93708.25;4171389;28;20369;-64
2024/04/02 02:36:53;;;;;;;;;;;;;;;22.23;21.37;93720.25;4170560;28;19924;-66
2024/04/02 02:38:53;;;;;;;;;;;;;;;22.22;21.57;93736.47;4172328;28;19924;-64
2024/04/02 02:41:00;;;;;;;;;;;;;;;22.30;20.81;93696.00;4171953;28;19944;-68
2024/04/02 02:43:01;;;;;;;;;;;;;;;22.34;21.42;93704.31;4157162;28;19921;-69
2024/04/02 02:45:02;;;;;;;;;;;;;;;22.29;21.38;93702.44;4163251;28;19925;-65
2024/04/02 02:47:04;;;;;;;;;;;;;;;22.28;21.58;93722.97;4173153;28;19925;-65
2024/04/02 02:49:04;;;;;;;;;;;;;;;22.34;21.49;93707.00;4171954;28;19943;-66
2024/04/02 02:51:05;;;;;;;;;;;;;;;22.36;21.45;93713.69;4172500;28;19920;-65
2024/04/02 02:53:08;;;;;;;;;;;;;;;22.35;20.66;93706.75;4170881;28;19998;-65
2024/04/02 02:55:08;;;;;;;;;;;;;;;22.40;20.82;93738.78;4174845;28;19920;-67
2024/04/02 02:57:09;;;;;;;;;;;;;;;22.41;20.90;93711.06;4173957;28;20399;-66
2024/04/02 02:59:09;;;;;;;;;;;;;;;22.41;20.90;93744.91;4166629;28;20002;-68
2024/04/02 03:01:10;;;;;;;;;;;;;;;22.42;20.83;93712.66;4166677;28;20374;-64
2024/04/02 03:03:11;;;;;;;;;;;;;;;22.39;21.02;93737.19;4167244;28;19951;-65
2024/04/02 03:05:12;;;;;;;;;;;;;;;22.36;21.53;93704.88;4165603;28;19948;-64
2024/04/02 03:07:13;;;;;;;;;;;;;;;22.35;21.34;93727.25;4175494;28;19921;-65
2024/04/02 03:09:14;;;;;;;;;;;;;;;22.36;21.05;93713.69;4167670;28;20493;-67
2024/04/02 03:11:14;;;;;;;;;;;;;;;22.42;21.13;93747.34;4166203;28;19929;-66
2024/04/02 03:13:15;;;;;;;;;;;;;;;22.39;21.56;93713.19;4165238;28;20023;-66
2024/04/02 03:15:16;;;;;;;;;;;;;;;22.29;21.67;93750.44;4174114;28;19921;-66
2024/04/02 03:17:16;;;;;;;;;;;;;;;22.29;21.43;93721.91;4165926;28;19928;-66
2024/04/02 03:19:17;;;;;;;;;;;;;;;22.22;21.91;93755.16;4163638;28;19925;-65
2024/04/02 03:21:17;;;;;;;;;;;;;;;22.21;21.75;93716.19;4144403;28;19921;-66
2024/04/02 03:23:20;;;;;;;;;;;;;;;22.22;21.65;93745.34;4161125;28;19921;-67
2024/04/02 03:25:20;;;;;;;;;;;;;;;22.18;21.78;93740.72;4157627;28;20403;-65
2024/04/02 03:27:21;;;;;;;;;;;;;;;22.23;21.66;93743.47;4164511;28;19924;-67
2024/04/02 03:29:22;;;;;;;;;;;;;;;22.20;21.93;93741.25;4166053;28;19935;-66
2024/04/02 03:31:22;;;;;;;;;;;;;;;22.22;21.86;93744.47;4167013;28;20245;-66
2024/04/02 03:33:24;;;;;;;;;;;;;;;22.18;21.59;93738.88;4168446;28;19974;-67
2024/04/02 03:35:24;;;;;;;;;;;;;;;22.18;21.84;93751.41;4174592;28;20019;-66
2024/04/02 03:37:25;;;;;;;;;;;;;;;22.13;21.88;93767.34;4170859;28;19932;-66
2024/04/02 03:39:26;;;;;;;;;;;;;;;22.13;22.00;93772.69;4168175;28;20283;-67
2024/04/02 03:41:26;;;;;;;;;;;;;;;22.13;21.88;93738.81;4161107;28;19986;-67
2024/04/02 03:43:27;;;;;;;;;;;;;;;22.06;21.95;93744.34;4173350;28;19924;-66
2024/04/02 03:45:28;;;;;;;;;;;;;;;21.99;22.18;93766.97;4170350;28;19952;-66
2024/04/02 03:47:28;;;;;;;;;;;;;;;22.02;22.10;93735.25;4162250;28;19930;-66
2024/04/02 03:49:29;;;;;;;;;;;;;;;22.04;22.02;93732.34;4173450;28;19920;-67
2024/04/02 03:51:30;;;;;;;;;;;;;;;22.02;22.40;93729.13;4174352;28;19959;-69
2024/04/02 03:53:31;;;;;;;;;;;;;;;22.00;21.97;93753.34;4172591;28;19928;-67
2024/04/02 03:55:34;;;;;;;;;;;;;;;22.04;22.22;93764.34;4176324;28;20019;-69
2024/04/02 03:57:35;;;;;;;;;;;;;;;22.03;22.30;93786.75;4168879;28;19921;-64
2024/04/02 03:59:35;;;;;;;;;;;;;;;21.94;22.39;93766.91;4160440;28;19936;-67
2024/04/02 04:01:37;;;;;;;;;;;;;;;21.93;22.54;93754.63;4175140;28;19927;-69
2024/04/02 04:03:38;;;;;;;;;;;;;;;21.94;22.89;93781.06;4177322;28;19925;-66
2024/04/02 04:05:38;;;;;;;;;;;;;;;21.88;22.94;93766.84;4167777;28;20055;-67
2024/04/02 04:07:39;;;;;;;;;;;;;;;21.88;23.25;93782.06;4176271;28;19925;-68
2024/04/02 04:09:40;;;;;;;;;;;;;;;21.78;23.27;93772.09;4164562;28;19964;-66
2024/04/02 04:11:40;;;;;;;;;;;;;;;21.70;22.85;93790.38;4164478;28;20288;-67
2024/04/02 04:13:41;;;;;;;;;;;;;;;21.68;23.32;93806.63;4172232;28;20654;-68
2024/04/02 04:15:42;;;;;;;;;;;;;;;21.73;23.00;93792.56;4175617;28;19921;-68
2024/04/02 04:17:43;;;;;;;;;;;;;;;21.72;23.22;93806.94;4155927;28;19971;-69
2024/04/02 04:19:44;;;;;;;;;;;;;;;21.64;23.67;93801.00;4155333;28;19921;-67
2024/04/02 04:21:44;;;;;;;;;;;;;;;21.60;23.78;93809.75;4173666;28;20058;-67
2024/04/02 04:23:45;;;;;;;;;;;;;;;21.61;23.70;93800.69;4169244;28;20392;-67
2024/04/02 04:25:46;;;;;;;;;;;;;;;21.61;23.74;93804.16;4172733;28;19921;-66
2024/04/02 04:27:47;;;;;;;;;;;;;;;21.56;24.12;93828.09;4174421;28;20008;-67
2024/04/02 04:29:47;;;;;;;;;;;;;;;21.48;24.12;93799.19;4169827;28;19925;-69
2024/04/02 04:31:48;;;;;;;;;;;;;;;21.45;24.39;93807.72;4174318;28;19950;-68
2024/04/02 04:33:49;;;;;;;;;;;;;;;21.39;24.29;93825.44;4165549;28;19932;-67
2024/04/02 04:35:49;;;;;;;;;;;;;;;21.33;24.55;93828.28;4163887;28;19928;-68
2024/04/02 04:37:50;;;;;;;;;;;;;;;21.24;24.82;93844.69;4163087;28;20351;-66
2024/04/02 04:39:51;;;;;;;;;;;;;;;21.26;24.49;93842.59;4174296;28;20311;-70
2024/04/02 04:41:51;;;;;;;;;;;;;;;21.39;24.99;93852.09;4175351;28;19974;-67
2024/04/02 04:43:52;;;;;;;;;;;;;;;21.23;25.50;93837.78;4173556;28;20387;-67
2024/04/02 04:45:53;;;;;;;;;;;;;;;21.20;25.73;93819.59;4174251;28;20430;-67
2024/04/02 04:47:55;;;;;;;;;;;;;;;21.13;25.82;93829.63;4165383;28;19925;-67
2024/04/02 04:49:56;;;;;;;;;;;;;;;21.09;26.00;93841.81;4175118;28;19921;-67
2024/04/02 04:51:56;;;;;;;;;;;;;;;20.98;26.19;93832.88;4166996;28;20379;-67
2024/04/02 04:53:57;;;;;;;;;;;;;;;20.94;25.94;93828.31;4166489;28;20399;-67
2024/04/02 04:56:05;;;;;;;;;;;;;;;20.90;26.37;93837.81;4171070;28;19932;-68
2024/04/02 04:58:06;;;;;;;;;;;;;;;20.92;26.27;93838.38;4165678;28;19975;-68
2024/04/02 05:00:07;;;;;;;;;;;;;;;20.85;26.37;93839.34;4169810;28;20609;-67
2024/04/02 05:02:08;;;;;;;;;;;;;;;20.89;26.34;93854.84;4169411;28;19921;-66
2024/04/02 05:04:09;;;;;;;;;;;;;;;20.79;26.75;93856.28;4171693;28;19932;-67
2024/04/02 05:06:10;;;;;;;;;;;;;;;20.76;26.63;93851.47;4167916;28;19975;-66
2024/04/02 05:08:21;;;;;;;;;;;;;;;20.79;26.78;93850.97;4170118;28;19925;-70
2024/04/02 05:10:23;;;;;;;;;;;;;;;20.73;26.95;93857.25;4172091;28;20382;-67
2024/04/02 05:12:23;;;;;;;;;;;;;;;20.73;26.68;93857.25;4170181;28;19925;-67
2024/04/02 05:14:24;;;;;;;;;;;;;;;20.72;26.97;93844.22;4163335;28;19941;-69
2024/04/02 05:16:27;;;;;;;;;;;;;;;20.68;26.88;93846.56;4172524;28;20393;-66
2024/04/02 05:18:28;;;;;;;;;;;;;;;20.76;26.98;93850.69;4170298;28;19925;-69
2024/04/02 05:20:28;;;;;;;;;;;;;;;20.80;27.10;93849.94;4172386;28;20414;-68
2024/04/02 05:22:29;;;;;;;;;;;;;;;20.77;27.02;93845.09;4167119;28;20489;-67
2024/04/02 05:24:29;;;;;;;;;;;;;;;20.75;27.06;93851.72;4169858;28;19928;-70
2024/04/02 05:26:30;;;;;;;;;;;;;;;20.70;26.99;93868.41;4173799;28;19964;-69
2024/04/02 05:28:30;;;;;;;;;;;;;;;20.68;27.12;93856.41;4150519;28;20408;-68
2024/04/02 05:30:31;;;;;;;;;;;;;;;20.73;27.12;93873.22;4166976;28;19936;-68
2024/04/02 05:32:32;;;;;;;;;;;;;;;20.75;27.03;93860.50;4163811;28;19921;-70
2024/04/02 05:34:33;;;;;;;;;;;;;;;20.72;27.20;93861.00;4171980;28;19962;-70
2024/04/02 05:36:33;;;;;;;;;;;;;;;20.73;27.38;93867.09;4168942;28;19947;-70
2024/04/02 05:38:34;;;;;;;;;;;;;;;20.59;27.36;93871.97;4171572;28;21150;-69
2024/04/02 05:40:35;;;;;;;;;;;;;;;20.58;27.62;93867.66;4168991;28;19974;-69
2024/04/02 05:42:36;;;;;;;;;;;;;;;20.61;27.53;93872.53;4174071;28;19948;-69
2024/04/02 05:44:37;;;;;;;;;;;;;;;20.45;27.93;93885.50;4172696;28;19924;-69
2024/04/02 05:46:37;;;;;;;;;;;;;;;20.54;27.83;93870.00;4168038;28;19925;-69
2024/04/02 05:48:38;;;;;;;;;;;;;;;20.60;27.95;93892.19;4156404;28;20453;-70
2024/04/02 05:50:38;;;;;;;;;;;;;;;20.44;28.04;93897.22;4173099;28;20002;-68
2024/04/02 05:52:39;;;;;;;;;;;;;;;20.47;28.16;93890.59;4174893;28;20051;-68
2024/04/02 05:54:40;;;;;;;;;;;;;;;20.44;28.33;93912.38;4170610;28;19921;-67
2024/04/02 05:56:40;;;;;;;;;;;;;;;20.36;28.27;93894.94;4166166;28;20273;-69
2024/04/02 05:58:41;;;;;;;;;;;;;;;20.46;28.48;93899.66;4154613;28;20360;-67
2024/04/02 06:00:42;;;;;;;;;;;;;;;20.59;28.43;93910.00;4166731;28;20314;-69
2024/04/02 06:02:42;;;;;;;;;;;;;;;20.60;28.49;93900.97;4175792;28;19921;-66
2024/04/02 06:04:43;;;;;;;;;;;;;;;20.71;28.06;93891.28;4173048;28;19920;-67
2024/04/02 06:06:45;;;;;;;;;;;;;;;20.69;28.10;93903.22;4169964;28;19921;-68
2024/04/02 06:08:46;;;;;;;;;;;;;;;20.79;28.14;93908.72;4164955;28;19925;-69
2024/04/02 06:10:46;;;;;;;;;;;;;;;20.71;28.18;93901.94;4161150;28;19933;-67
2024/04/02 06:12:47;;;;;;;;;;;;;;;20.74;28.30;93921.97;4174076;28;19929;-69
2024/04/02 06:14:49;;;;;;;;;;;;;;;20.76;28.20;93917.22;4173844;28;19920;-69
2024/04/02 06:16:49;;;;;;;;;;;;;;;20.76;28.03;93923.34;4170094;28;20000;-68
2024/04/02 06:18:50;;;;;;;;;;;;;;;20.84;28.35;93909.63;4168913;28;19927;-67
2024/04/02 06:20:57;;;;;;;;;;;;;;;20.81;28.47;93906.63;4176032;28;19924;-68
2024/04/02 06:22:57;;;;;;;;;;;;;;;20.96;28.44;93928.16;4169447;28;19932;-69
2024/04/02 06:24:58;;;;;;;;;;;;;;;20.98;28.22;93918.09;4175567;28;19928;-72
2024/04/02 06:26:59;;;;;;;;;;;;;;;21.00;28.13;93931.16;4174320;28;19924;-68
2024/04/02 06:28:59;;;;;;;;;;;;;;;20.85;28.44;93945.03;4165510;28;19952;-68
2024/04/02 06:31:00;;;;;;;;;;;;;;;20.94;28.46;93942.78;4164445;28;19976;-68
2024/04/02 06:33:00;;;;;;;;;;;;;;;21.03;28.26;93946.66;4164277;28;19925;-69
2024/04/02 06:35:02;;;;;;;;;;;;;;;20.98;28.47;93950.03;4173661;28;19925;-69
2024/04/02 06:37:02;;;;;;;;;;;;;;;20.94;28.29;93958.75;4166933;28;19971;-68
2024/04/02 06:39:03;;;;;;;;;;;;;;;20.94;28.37;93964.06;4168298;28;20360;-67
2024/04/02 06:41:04;;;;;;;;;;;;;;;20.82;28.66;93962.31;4172007;28;19920;-70
2024/04/02 06:43:04;;;;;;;;;;;;;;;20.82;28.60;93967.63;4176570;28;19921;-68
2024/04/02 06:45:05;;;;;;;;;;;;;;;20.94;28.92;93975.53;4173994;28;19960;-68
2024/04/02 06:47:24;;;;;;;;;;;;;;;20.94;28.90;93986.19;4169236;28;20012;-69
2024/04/02 06:49:25;;;;;;;;;;;;;;;20.82;29.01;94004.91;4168401;28;19928;-68
2024/04/02 06:51:25;;;;;;;;;;;;;;;20.75;29.34;93966.94;4168875;28;20014;-67
2024/04/02 06:53:26;;;;;;;;;;;;;;;20.90;29.57;93995.69;4171827;28;20462;-67
2024/04/02 06:55:28;;;;;;;;;;;;;;;20.84;30.37;93988.66;4171472;28;19931;-69
2024/04/02 06:57:29;;;;;;;;;;;;;;;20.82;30.89;93998.75;4173294;28;19921;-69
2024/04/02 06:59:30;;;;;;;;;;;;;;;21.01;31.36;94002.00;4155063;28;20018;-67
2024/04/02 07:01:30;;;;;;;;;;;;;;;20.93;32.38;94011.19;4167981;28;20380;-68
2024/04/02 07:03:31;;;;;;;;;;;;;;;20.72;33.74;94018.00;4164432;28;20086;-66
2024/04/02 07:05:32;;;;;;;;;;;;;;;20.54;34.36;94015.50;4168882;28;19921;-68
2024/04/02 07:07:33;;;;;;;;;;;;;;;20.65;34.70;94036.00;4175475;28;19925;-68
2024/04/02 07:09:34;;;;;;;;;;;;;;;20.59;34.92;94012.97;4171460;28;19925;-67
2024/04/02 07:11:35;;;;;;;;;;;;;;;20.63;35.12;94022.13;4170046;28;20292;-69
2024/04/02 07:13:36;;;;;;;;;;;;;;;20.70;35.56;94008.66;4149911;28;19976;-69
2024/04/02 07:15:39;;;;;;;;;;;;;;;20.66;36.05;94014.44;4178792;28;19921;-69
2024/04/02 07:17:40;;;;;;;;;;;;;;;20.88;35.88;94015.63;4172190;28;20375;-67
2024/04/02 07:19:41;;;;;;;;;;;;;;;20.89;36.05;94015.38;4170666;28;19921;-68
2024/04/02 07:21:42;;;;;;;;;;;;;;;21.15;35.42;94008.63;4170280;28;19921;-68
2024/04/02 07:23:43;;;;;;;;;;;;;;;21.16;35.38;93999.59;4175414;28;19921;-68
2024/04/02 07:25:43;;;;;;;;;;;;;;;21.15;35.45;94021.94;4176351;28;19921;-68
2024/04/02 07:27:48;;;;;;;;;;;;;;;21.10;35.02;94021.03;4169971;28;20439;-68
2024/04/02 07:29:48;;;;;;;;;;;;;;;21.13;35.05;94015.25;4168785;28;19979;-68
2024/04/02 07:31:49;;;;;;;;;;;;;;;21.10;35.50;94019.22;4172484;28;19920;-70
2024/04/02 07:33:49;;;;;;;;;;;;;;;21.11;35.31;94023.47;4173466;28;19932;-68
2024/04/02 07:35:55;;;;;;;;;;;;;;;21.37;35.05;94026.56;4177545;28;20372;-67
2024/04/02 07:37:56;;;;;;;;;;;;;;;21.23;35.44;94031.38;4173633;28;19929;-69
2024/04/02 07:39:57;;;;;;;;;;;;;;;21.28;34.69;94012.84;4168489;28;19925;-68
2024/04/02 07:41:57;;;;;;;;;;;;;;;21.25;34.86;94018.63;4178913;28;20176;-69
2024/04/02 07:43:59;;;;;;;;;;;;;;;21.31;35.20;94017.66;4166417;28;19928;-69
2024/04/02 07:45:59;;;;;;;;;;;;;;;21.43;34.86;94021.09;4178247;28;20395;-69
2024/04/02 07:48:00;;;;;;;;;;;;;;;21.35;35.23;94018.00;4168916;28;19951;-69
2024/04/02 07:52:20;;;;;;;;;;;;;;;21.36;35.72;94019.59;4175006;28;20272;-70
2024/04/02 07:54:21;;;;;;;;;;;;;;;21.46;35.91;94011.81;4173184;28;19935;-69
2024/04/02 07:56:22;;;;;;;;;;;;;;;21.44;35.90;94008.56;4173689;28;19925;-68
2024/04/02 07:58:24;;;;;;;;;;;;;;;21.43;35.83;94015.78;4177187;28;19974;-67
2024/04/02 08:00:26;;;;;;;;;;;;;;;21.57;34.87;94010.91;4166934;28;19951;-70
2024/04/02 08:02:26;;;;;;;;;;;;;;;21.66;35.05;94006.78;4158457;28;19984;-69
2024/04/02 08:04:27;;;;;;;;;;;;;;;21.88;34.33;94003.34;4176538;28;20356;-69
2024/04/02 08:06:28;;;;;;;;;;;;;;;22.02;34.04;94007.25;4175199;28;19931;-69
2024/04/02 08:08:28;;;;;;;;;;;;;;;22.03;33.52;94016.09;4173091;28;19925;-68
2024/04/02 08:10:29;;;;;;;;;;;;;;;21.94;34.10;93998.88;4173520;28;19929;-70
2024/04/02 08:12:30;;;;;;;;;;;;;;;21.75;34.09;93995.72;4172306;28;19920;-68
2024/04/02 08:14:33;;;;;;;;;;;;;;;21.75;34.16;94003.72;4168723;28;19924;-67
2024/04/02 08:16:34;;;;;;;;;;;;;;;21.60;34.40;93999.78;4169434;28;20287;-66
2024/04/02 08:18:35;;;;;;;;;;;;;;;21.67;33.98;93989.72;4162429;28;19962;-67
2024/04/02 08:20:35;;;;;;;;;;;;;;;21.83;33.94;94001.44;4169664;28;20260;-69
2024/04/02 08:22:37;;;;;;;;;;;;;;;21.82;33.54;94002.47;4170931;28;20496;-67
2024/04/02 08:24:38;;;;;;;;;;;;;;;22.04;32.83;93997.16;4169572;28;19931;-70
2024/04/02 08:26:39;;;;;;;;;;;;;;;21.82;32.37;93989.13;4172926;28;20169;-69
2024/04/02 08:28:40;;;;;;;;;;;;;;;21.88;32.71;93971.38;4175810;28;19927;-69
2024/04/02 08:30:41;;;;;;;;;;;;;;;21.94;32.64;93982.88;4172081;28;19920;-69
2024/04/02 08:32:41;;;;;;;;;;;;;;;21.99;32.67;93982.97;4168699;28;20439;-68
2024/04/02 08:34:42;;;;;;;;;;;;;;;22.09;32.13;93983.91;4172430;28;20391;-70
2024/04/02 08:36:43;;;;;;;;;;;;;;;22.25;31.86;94002.78;4174449;28;19990;-69
2024/04/02 08:38:43;;;;;;;;;;;;;;;22.08;31.64;94002.81;4158591;28;20491;-67
2024/04/02 08:40:50;;;;;;;;;;;;;;;22.24;31.00;93998.50;4169562;28;20332;-70
2024/04/02 08:42:51;;;;;;;;;;;;;;;22.28;30.52;93988.94;4171882;28;20322;-68
2024/04/02 08:44:51;;;;;;;;;;;;;;;22.47;30.27;93995.56;4155049;28;19922;-69
2024/04/02 08:46:52;;;;;;;;;;;;;;;22.62;29.19;93992.25;4152410;28;19992;-68
2024/04/02 08:48:53;;;;;;;;;;;;;;;22.58;28.48;93990.34;4169596;28;19936;-69
2024/04/02 08:50:55;;;;;;;;;;;;;;;22.64;28.59;93992.00;4172684;28;19926;-68
2024/04/02 08:52:56;;;;;;;;;;;;;;;22.33;27.90;93975.69;4164653;28;19935;-68
2024/04/02 08:54:56;;;;;;;;;;;;;;;22.08;28.21;94006.28;4173877;28;19924;-69
2024/04/02 08:56:57;;;;;;;;;;;;;;;22.07;28.11;93986.00;4176268;28;20027;-67
2024/04/02 08:58:58;;;;;;;;;;;;;;;22.31;28.19;94011.69;4157641;28;19925;-67
2024/04/02 09:01:02;;;;;;;;;;;;;;;22.25;28.30;94022.25;4157833;28;19971;-70
2024/04/02 09:03:03;;;;;;;;;;;;;;;22.24;28.55;93996.66;4164673;28;19971;-70
2024/04/02 09:05:04;;;;;;;;;;;;;;;22.26;28.45;94012.38;4173021;28;19928;-71
2024/04/02 09:07:04;;;;;;;;;;;;;;;22.46;27.09;93990.50;4176285;28;20353;-67
2024/04/02 09:09:06;;;;;;;;;;;;;;;22.33;25.05;93991.69;4167397;28;19925;-69
2024/04/02 09:11:07;;;;;;;;;;;;;;;22.43;25.58;94001.66;4149202;28;19960;-68
2024/04/02 09:13:07;;;;;;;;;;;;;;;22.31;24.77;93977.78;4159708;28;19967;-71
2024/04/02 09:15:08;;;;;;;;;;;;;;;22.49;24.24;93969.44;4174356;28;19971;-69
2024/04/02 09:17:08;;;;;;;;;;;;;;;22.75;23.96;94004.41;4149126;28;20022;-68
2024/04/02 09:19:09;;;;;;;;;;;;;;;22.88;23.15;93993.31;4175156;28;19932;-68
2024/04/02 09:21:11;;;;;;;;;;;;;;;22.80;22.21;94023.16;4166411;28;19921;-67
2024/04/02 09:23:11;;;;;;;;;;;;;;;22.64;22.26;93994.69;4166874;28;20270;-70
2024/04/02 09:25:12;;;;;;;;;;;;;;;22.68;21.44;93985.91;4164764;28;19979;-68
2024/04/02 09:27:13;;;;;;;;;;;;;;;22.67;22.59;93980.81;4149070;28;20290;-66
2024/04/02 09:29:13;;;;;;;;;;;;;;;22.52;23.19;94010.03;4158489;28;19965;-68
2024/04/02 09:31:14;;;;;;;;;;;;;;;22.47;23.98;93992.91;4166898;28;19971;-68
2024/04/02 09:33:17;;;;;;;;;;;;;;;22.59;24.16;93990.09;4161181;28;20353;-69
2024/04/02 09:35:41;;;;;;;;;;;;;;;22.78;24.06;93995.06;4171427;28;19932;-69
2024/04/02 09:37:45;;;;;;;;;;;;;;;22.98;24.05;94005.16;4138781;28;20292;-70
2024/04/02 09:39:46;;;;;;;;;;;;;;;22.88;23.87;94009.34;4148200;28;20380;-69
2024/04/02 09:41:46;;;;;;;;;;;;;;;22.76;23.13;93997.19;4154354;28;19921;-69
2024/04/02 09:43:47;;;;;;;;;;;;;;;22.81;23.48;93987.38;4150503;28;19932;-69
2024/04/02 09:45:48;;;;;;;;;;;;;;;22.88;23.06;93997.84;4159343;28;20032;-69
2024/04/02 09:47:49;;;;;;;;;;;;;;;22.92;23.10;94009.66;4176211;28;19987;-67
2024/04/02 09:49:49;;;;;;;;;;;;;;;22.71;23.16;93997.94;4152443;28;20388;-67
2024/04/02 09:51:50;;;;;;;;;;;;;;;22.35;23.64;94026.94;4172370;28;19921;-68
2024/04/02 09:53:51;;;;;;;;;;;;;;;22.08;24.05;94026.81;4167753;28;19948;-67
2024/04/02 09:55:55;;;;;;;;;;;;;;;21.88;24.70;94032.69;4168341;28;19924;-69
2024/04/02 09:57:55;;;;;;;;;;;;;;;20.76;26.58;94031.66;4176005;28;20230;-69
2024/04/02 09:59:56;;;;;;;;;;;;;;;20.15;27.26;94028.56;4156404;28;19920;-69
2024/04/02 10:01:56;;;;;;;;;;;;;;;20.28;27.19;94017.66;4167970;28;20323;-69
2024/04/02 10:04:00;;;;;;;;;;;;;;;20.44;26.82;94008.94;4156622;28;20674;-69
2024/04/02 10:06:04;;;;;;;;;;;;;;;20.59;26.84;94008.47;4174736;28;20305;-68
2024/04/02 10:08:08;;;;;;;;;;;;;;;20.53;26.40;94012.03;4174762;28;20403;-69
2024/04/02 10:10:08;;;;;;;;;;;;;;;20.71;25.57;94016.38;4171270;28;20419;-68
2024/04/02 10:12:09;;;;;;;;;;;;;;;20.79;25.03;94016.00;4149833;28;19920;-69
2024/04/02 10:14:16;;;;;;;;;;;;;;;20.83;24.33;94009.16;4156710;28;20006;-70
2024/04/02 10:16:20;;;;;;;;;;;;;;;20.96;24.20;94025.88;4152759;28;19983;-69
2024/04/02 10:18:21;;;;;;;;;;;;;;;20.20;24.38;94023.38;4168829;28;19994;-69
2024/04/02 10:20:25;;;;;;;;;;;;;;;20.11;24.54;94020.28;4171688;28;19928;-69
2024/04/02 10:22:26;;;;;;;;;;;;;;;20.07;24.57;94024.44;4163858;28;20269;-66
2024/04/02 10:24:26;;;;;;;;;;;;;;;20.18;24.80;94010.31;4172796;28;19951;-68
2024/04/02 10:26:31;;;;;;;;;;;;;;;20.41;24.43;94009.44;4154170;28;19984;-67
2024/04/02 10:28:32;;;;;;;;;;;;;;;20.08;24.41;93998.66;4173008;28;19931;-68
2024/04/02 10:30:33;;;;;;;;;;;;;;;20.23;24.51;93993.63;4173347;28;19929;-68
2024/04/02 10:32:35;;;;;;;;;;;;;;;20.54;24.27;93999.53;4167310;28;20064;-67
2024/04/02 10:34:36;;;;;;;;;;;;;;;20.57;22.77;93988.44;4142231;28;19945;-70